sensor_id;sensor_type;location;lat;lon;timestamp;pressure;altitude;pressure_sealevel;temperature;humidity
42003;BME280;27693;50.506;30.832;2022-11-20T00:00:44;100173.21;;;-0.31;72.10
42003;BME280;27693;50.506;30.832;2022-11-20T00:01:47;100168.97;;;-0.28;72.28
42003;BME280;27693;50.506;30.832;2022-11-20T00:02:49;100161.33;;;-0.22;72.36
42003;BME280;27693;50.506;30.832;2022-11-20T00:03:53;100171.56;;;-0.22;72.36
42003;BME280;27693;50.506;30.832;2022-11-20T00:04:56;100176.70;;;-0.15;72.63
42003;BME280;27693;50.506;30.832;2022-11-20T00:06:07;100167.38;;;-0.07;72.42
42003;BME280;27693;50.506;30.832;2022-11-20T00:07:05;100174.17;;;-0.09;72.17
42003;BME280;27693;50.506;30.832;2022-11-20T00:08:07;100177.61;;;-0.06;72.32
42003;BME280;27693;50.506;30.832;2022-11-20T00:09:09;100183.63;;;0.04;71.87
42003;BME280;27693;50.506;30.832;2022-11-20T00:10:12;100183.63;;;0.04;71.61
42003;BME280;27693;50.506;30.832;2022-11-20T00:11:17;100187.05;;;0.06;71.66
42003;BME280;27693;50.506;30.832;2022-11-20T00:12:20;100186.20;;;0.09;71.78
42003;BME280;27693;50.506;30.832;2022-11-20T00:13:21;100192.16;;;0.08;71.79
42003;BME280;27693;50.506;30.832;2022-11-20T00:14:24;100191.20;;;-0.11;71.66
42003;BME280;27693;50.506;30.832;2022-11-20T00:15:25;100194.64;;;-0.11;71.85
42003;BME280;27693;50.506;30.832;2022-11-20T00:16:30;100196.33;;;-0.11;72.29
42003;BME280;27693;50.506;30.832;2022-11-20T00:17:32;100201.44;;;-0.11;72.56
42003;BME280;27693;50.506;30.832;2022-11-20T00:18:36;100205.77;;;0.02;72.67
42003;BME280;27693;50.506;30.832;2022-11-20T00:19:38;100210.05;;;0.03;72.35
42003;BME280;27693;50.506;30.832;2022-11-20T00:20:40;100212.60;;;0.05;72.02
42003;BME280;27693;50.506;30.832;2022-11-20T00:21:42;100216.84;;;-0.01;72.16
42003;BME280;27693;50.506;30.832;2022-11-20T00:22:43;100217.69;;;-0.03;72.12
42003;BME280;27693;50.506;30.832;2022-11-20T00:23:46;100222.87;;;0.06;71.55
42003;BME280;27693;50.506;30.832;2022-11-20T00:24:48;100214.26;;;-0.05;71.51
42003;BME280;27693;50.506;30.832;2022-11-20T00:25:51;100220.25;;;-0.02;71.68
42003;BME280;27693;50.506;30.832;2022-11-20T00:26:53;100207.42;;;-0.09;72.45
42003;BME280;27693;50.506;30.832;2022-11-20T00:27:55;100212.48;;;-0.22;72.13
42003;BME280;27693;50.506;30.832;2022-11-20T00:28:59;100209.89;;;-0.26;72.31
42003;BME280;27693;50.506;30.832;2022-11-20T00:30:02;100209.92;;;-0.22;72.15
42003;BME280;27693;50.506;30.832;2022-11-20T00:31:12;100214.13;;;-0.30;71.85
42003;BME280;27693;50.506;30.832;2022-11-20T00:32:11;100213.25;;;-0.30;71.80
42003;BME280;27693;50.506;30.832;2022-11-20T00:33:13;100212.44;;;-0.25;71.98
42003;BME280;27693;50.506;30.832;2022-11-20T00:34:14;100211.60;;;-0.24;72.33
42003;BME280;27693;50.506;30.832;2022-11-20T00:35:16;100211.60;;;-0.24;72.33
42003;BME280;27693;50.506;30.832;2022-11-20T00:36:25;100203.89;;;-0.27;72.42
42003;BME280;27693;50.506;30.832;2022-11-20T00:37:27;100204.80;;;-0.22;72.41
42003;BME280;27693;50.506;30.832;2022-11-20T00:38:31;100206.45;;;-0.27;72.46
42003;BME280;27693;50.506;30.832;2022-11-20T00:39:33;100203.02;;;-0.30;72.74
42003;BME280;27693;50.506;30.832;2022-11-20T00:40:34;100210.77;;;-0.23;72.24
42003;BME280;27693;50.506;30.832;2022-11-20T00:41:37;100214.16;;;-0.24;72.11
42003;BME280;27693;50.506;30.832;2022-11-20T00:42:39;100220.14;;;-0.22;71.67
42003;BME280;27693;50.506;30.832;2022-11-20T00:43:41;100226.98;;;-0.21;71.69
42003;BME280;27693;50.506;30.832;2022-11-20T00:44:43;100223.47;;;-0.32;71.88
42003;BME280;27693;50.506;30.832;2022-11-20T00:45:44;100226.06;;;-0.26;71.59
42003;BME280;27693;50.506;30.832;2022-11-20T00:46:46;100226.06;;;-0.26;71.59
42003;BME280;27693;50.506;30.832;2022-11-20T00:47:48;100224.42;;;-0.21;71.35
42003;BME280;27693;50.506;30.832;2022-11-20T00:48:50;100231.19;;;-0.26;71.52
42003;BME280;27693;50.506;30.832;2022-11-20T00:49:52;100236.30;;;-0.26;71.66
42003;BME280;27693;50.506;30.832;2022-11-20T00:50:55;100239.70;;;-0.27;71.73
42003;BME280;27693;50.506;30.832;2022-11-20T00:51:57;100237.20;;;-0.19;71.59
42003;BME280;27693;50.506;30.832;2022-11-20T00:52:58;100235.49;;;-0.20;71.54
42003;BME280;27693;50.506;30.832;2022-11-20T00:54:00;100232.90;;;-0.25;71.88
42003;BME280;27693;50.506;30.832;2022-11-20T00:55:03;100226.91;;;-0.28;71.86
42003;BME280;27693;50.506;30.832;2022-11-20T00:56:10;100235.42;;;-0.33;71.78
42003;BME280;27693;50.506;30.832;2022-11-20T00:57:12;100232.90;;;-0.28;71.61
42003;BME280;27693;50.506;30.832;2022-11-20T00:58:14;100224.42;;;-0.21;71.45
42003;BME280;27693;50.506;30.832;2022-11-20T00:59:16;100232.09;;;-0.16;71.41
42003;BME280;27693;50.506;30.832;2022-11-20T01:00:18;100230.22;;;-0.43;70.29
42003;BME280;27693;50.506;30.832;2022-11-20T01:01:23;100223.23;;;-0.65;68.79
42003;BME280;27693;50.506;30.832;2022-11-20T01:02:25;100229.95;;;-0.76;68.28
42003;BME280;27693;50.506;30.832;2022-11-20T01:03:29;100227.45;;;-0.71;68.52
42003;BME280;27693;50.506;30.832;2022-11-20T01:04:31;100217.32;;;-0.59;70.24
42003;BME280;27693;50.506;30.832;2022-11-20T01:05:34;100217.32;;;-0.59;70.24
42003;BME280;27693;50.506;30.832;2022-11-20T01:06:38;100225.91;;;-0.49;70.79
42003;BME280;27693;50.506;30.832;2022-11-20T01:07:41;100224.27;;;-0.42;71.64
42003;BME280;27693;50.506;30.832;2022-11-20T01:08:44;100214.08;;;-0.36;72.58
42003;BME280;27693;50.506;30.832;2022-11-20T01:09:46;100216.64;;;-0.36;73.74
42003;BME280;27693;50.506;30.832;2022-11-20T01:10:48;100209.84;;;-0.31;73.98
42003;BME280;27693;50.506;30.832;2022-11-20T01:11:50;100205.58;;;-0.32;74.49
42003;BME280;27693;50.506;30.832;2022-11-20T01:12:51;100215.84;;;-0.26;74.13
42003;BME280;27693;50.506;30.832;2022-11-20T01:13:55;100217.59;;;-0.22;73.82
42003;BME280;27693;50.506;30.832;2022-11-20T01:14:57;100209.11;;;-0.14;74.01
42003;BME280;27693;50.506;30.832;2022-11-20T01:16:04;100204.88;;;-0.09;74.18
42003;BME280;27693;50.506;30.832;2022-11-20T01:17:06;100211.73;;;-0.01;74.42
42003;BME280;27693;50.506;30.832;2022-11-20T01:18:08;100208.36;;;0.08;73.88
42003;BME280;27693;50.506;30.832;2022-11-20T01:19:14;100207.52;;;0.06;73.97
42003;BME280;27693;50.506;30.832;2022-11-20T01:20:18;100211.76;;;0.07;73.67
42003;BME280;27693;50.506;30.832;2022-11-20T01:21:23;100220.31;;;0.06;73.78
42003;BME280;27693;50.506;30.832;2022-11-20T01:22:25;100218.56;;;0.04;73.39
42003;BME280;27693;50.506;30.832;2022-11-20T01:23:37;100221.15;;;0.08;73.12
42003;BME280;27693;50.506;30.832;2022-11-20T01:24:35;100218.62;;;0.13;73.14
42003;BME280;27693;50.506;30.832;2022-11-20T01:25:37;100211.79;;;0.10;72.46
42003;BME280;27693;50.506;30.832;2022-11-20T01:26:41;100214.34;;;0.10;71.85
42003;BME280;27693;50.506;30.832;2022-11-20T01:27:43;100219.49;;;0.15;71.60
42003;BME280;27693;50.506;30.832;2022-11-20T01:28:45;100222.05;;;0.18;71.82
42003;BME280;27693;50.506;30.832;2022-11-20T01:29:48;100216.09;;;0.21;72.13
42003;BME280;27693;50.506;30.832;2022-11-20T01:30:51;100212.71;;;0.25;71.81
42003;BME280;27693;50.506;30.832;2022-11-20T01:31:53;100211.05;;;0.33;71.53
42003;BME280;27693;50.506;30.832;2022-11-20T01:32:55;100210.20;;;0.34;72.02
42003;BME280;27693;50.506;30.832;2022-11-20T01:34:00;100210.17;;;0.33;71.71
42003;BME280;27693;50.506;30.832;2022-11-20T01:35:02;100209.31;;;0.26;71.78
42003;BME280;27693;50.506;30.832;2022-11-20T01:36:06;100211.02;;;0.30;71.08
42003;BME280;27693;50.506;30.832;2022-11-20T01:37:08;100206.75;;;0.26;71.80
42003;BME280;27693;50.506;30.832;2022-11-20T01:38:10;100219.49;;;0.17;73.25
42003;BME280;27693;50.506;30.832;2022-11-20T01:39:20;100216.03;;;0.08;73.64
42003;BME280;27693;50.506;30.832;2022-11-20T01:40:18;100215.06;;;-0.14;73.01
42003;BME280;27693;50.506;30.832;2022-11-20T01:41:20;100215.94;;;-0.10;73.05
42003;BME280;27693;50.506;30.832;2022-11-20T01:42:22;100220.25;;;-0.03;73.09
42003;BME280;27693;50.506;30.832;2022-11-20T01:43:24;100211.77;;;0.03;73.12
42003;BME280;27693;50.506;30.832;2022-11-20T01:44:48;100211.76;;;0.07;73.15
42003;BME280;27693;50.506;30.832;2022-11-20T01:47:04;100205.85;;;0.21;72.90
42003;BME280;27693;50.506;30.832;2022-11-20T01:48:07;100213.58;;;0.30;73.03
42003;BME280;27693;50.506;30.832;2022-11-20T01:49:37;100214.42;;;0.29;73.49
42003;BME280;27693;50.506;30.832;2022-11-20T01:50:32;100211.89;;;0.32;73.79
42003;BME280;27693;50.506;30.832;2022-11-20T01:51:44;100211.05;;;0.35;72.48
42003;BME280;27693;50.506;30.832;2022-11-20T01:52:48;100207.68;;;0.46;72.29
42003;BME280;27693;50.506;30.832;2022-11-20T01:53:53;100211.95;;;0.51;71.45
42003;BME280;27693;50.506;30.832;2022-11-20T01:55:05;100210.21;;;0.45;72.24
42003;BME280;27693;50.506;30.832;2022-11-20T01:56:10;100224.75;;;0.47;71.79
42003;BME280;27693;50.506;30.832;2022-11-20T01:57:15;100232.43;;;0.51;72.02
42003;BME280;27693;50.506;30.832;2022-11-20T01:58:22;100226.47;;;0.52;72.67
42003;BME280;27693;50.506;30.832;2022-11-20T01:59:26;100228.13;;;0.43;73.99
42003;BME280;27693;50.506;30.832;2022-11-20T02:00:30;100236.53;;;0.14;73.54
42003;BME280;27693;50.506;30.832;2022-11-20T02:01:33;100232.23;;;0.04;74.31
42003;BME280;27693;50.506;30.832;2022-11-20T02:02:37;100235.66;;;0.08;73.91
42003;BME280;27693;50.506;30.832;2022-11-20T02:03:41;100245.08;;;0.13;73.21
42003;BME280;27693;50.506;30.832;2022-11-20T02:04:44;100244.23;;;0.19;72.44
42003;BME280;27693;50.506;30.832;2022-11-20T02:07:17;100244.27;;;0.24;73.37
42003;BME280;27693;50.506;30.832;2022-11-20T02:08:21;100236.61;;;0.27;72.57
42003;BME280;27693;50.506;30.832;2022-11-20T02:09:26;100243.42;;;0.28;72.68
42003;BME280;27693;50.506;30.832;2022-11-20T02:10:29;100238.30;;;0.28;72.95
42003;BME280;27693;50.506;30.832;2022-11-20T02:11:31;100226.38;;;0.30;72.79
42003;BME280;27693;50.506;30.832;2022-11-20T02:12:33;100228.95;;;0.35;73.25
42003;BME280;27693;50.506;30.832;2022-11-20T02:13:35;100234.08;;;0.33;74.10
42003;BME280;27693;50.506;30.832;2022-11-20T02:14:37;100238.33;;;0.31;73.60
42003;BME280;27693;50.506;30.832;2022-11-20T02:15:40;100241.76;;;0.33;73.65
42003;BME280;27693;50.506;30.832;2022-11-20T02:16:47;100245.98;;;0.26;73.64
42003;BME280;27693;50.506;30.832;2022-11-20T02:17:51;100249.41;;;0.28;73.44
42003;BME280;27693;50.506;30.832;2022-11-20T02:18:59;100251.88;;;0.14;73.46
42003;BME280;27693;50.506;30.832;2022-11-20T02:20:02;100245.02;;;0.06;74.08
42003;BME280;27693;50.506;30.832;2022-11-20T02:21:08;100240.53;;;-0.29;74.49
42003;BME280;27693;50.506;30.832;2022-11-20T02:22:19;100239.80;;;-0.14;75.05
42003;BME280;27693;50.506;30.832;2022-11-20T02:24:27;100239.80;;;-0.11;75.38
42003;BME280;27693;50.506;30.832;2022-11-20T02:25:31;100230.45;;;-0.09;75.02
42003;BME280;27693;50.506;30.832;2022-11-20T02:26:38;100221.87;;;-0.16;75.46
42003;BME280;27693;50.506;30.832;2022-11-20T02:27:40;100221.87;;;-0.16;75.46
42003;BME280;27693;50.506;30.832;2022-11-20T02:28:42;100235.45;;;-0.25;75.62
42003;BME280;27693;50.506;30.832;2022-11-20T02:29:48;100248.08;;;-0.46;75.87
42003;BME280;27693;50.506;30.832;2022-11-20T02:30:50;100247.28;;;-0.41;76.50
42003;BME280;27693;50.506;30.832;2022-11-20T02:31:53;100246.48;;;-0.32;76.08
42003;BME280;27693;50.506;30.832;2022-11-20T02:32:58;100256.79;;;-0.23;75.68
42003;BME280;27693;50.506;30.832;2022-11-20T02:34:00;100256.80;;;-0.20;75.45
42003;BME280;27693;50.506;30.832;2022-11-20T02:36:26;100251.72;;;-0.13;76.54
42003;BME280;27693;50.506;30.832;2022-11-20T02:37:32;100253.50;;;-0.03;77.03
42003;BME280;27693;50.506;30.832;2022-11-20T02:38:34;100258.58;;;-0.09;77.76
42003;BME280;27693;50.506;30.832;2022-11-20T02:39:36;100260.30;;;-0.05;77.98
42003;BME280;27693;50.506;30.832;2022-11-20T02:40:39;100256.86;;;-0.12;77.55
42003;BME280;27693;50.506;30.832;2022-11-20T02:41:41;100261.98;;;-0.12;77.88
42003;BME280;27693;50.506;30.832;2022-11-20T02:42:42;100265.42;;;-0.08;77.99
42003;BME280;27693;50.506;30.832;2022-11-20T02:43:45;100265.42;;;-0.05;77.32
42003;BME280;27693;50.506;30.832;2022-11-20T02:44:47;100258.62;;;-0.03;77.48
42003;BME280;27693;50.506;30.832;2022-11-20T02:45:49;100256.97;;;0.05;76.72
42003;BME280;27693;50.506;30.832;2022-11-20T02:46:51;100260.34;;;0.01;76.48
42003;BME280;27693;50.506;30.832;2022-11-20T02:47:53;100255.22;;;0.01;76.50
42003;BME280;27693;50.506;30.832;2022-11-20T02:48:55;100253.50;;;-0.03;76.17
42003;BME280;27693;50.506;30.832;2022-11-20T02:49:58;100250.11;;;0.01;76.75
42003;BME280;27693;50.506;30.832;2022-11-20T02:51:00;100250.11;;;0.01;76.75
42003;BME280;27693;50.506;30.832;2022-11-20T02:52:02;100243.30;;;0.03;77.30
42003;BME280;27693;50.506;30.832;2022-11-20T02:53:03;100243.34;;;0.06;77.24
42003;BME280;27693;50.506;30.832;2022-11-20T02:54:06;100242.52;;;0.17;76.49
42003;BME280;27693;50.506;30.832;2022-11-20T02:55:08;100242.52;;;0.17;76.49
42003;BME280;27693;50.506;30.832;2022-11-20T02:56:12;100251.97;;;0.27;76.44
42003;BME280;27693;50.506;30.832;2022-11-20T02:57:14;100255.28;;;0.10;75.78
42003;BME280;27693;50.506;30.832;2022-11-20T02:58:16;100247.61;;;0.09;76.10
42003;BME280;27693;50.506;30.832;2022-11-20T02:59:18;100246.73;;;0.07;76.33
42003;BME280;27693;50.506;30.832;2022-11-20T03:00:20;100239.88;;;0.01;76.70
42003;BME280;27693;50.506;30.832;2022-11-20T03:01:22;100247.58;;;0.04;76.58
42003;BME280;27693;50.506;30.832;2022-11-20T03:02:24;100245.89;;;0.08;76.16
42003;BME280;27693;50.506;30.832;2022-11-20T03:03:26;100245.05;;;0.10;76.13
42003;BME280;27693;50.506;30.832;2022-11-20T03:04:28;100241.68;;;0.18;76.06
42003;BME280;27693;50.506;30.832;2022-11-20T03:05:30;100244.30;;;0.27;75.44
42003;BME280;27693;50.506;30.832;2022-11-20T03:06:32;100246.85;;;0.27;75.28
42003;BME280;27693;50.506;30.832;2022-11-20T03:07:34;100255.31;;;0.13;75.46
42003;BME280;27693;50.506;30.832;2022-11-20T03:08:36;100255.34;;;0.20;75.75
42003;BME280;27693;50.506;30.832;2022-11-20T03:09:38;100253.63;;;0.22;75.84
42003;BME280;27693;50.506;30.832;2022-11-20T03:10:40;100257.94;;;0.27;76.18
42003;BME280;27693;50.506;30.832;2022-11-20T03:11:41;100243.45;;;0.31;75.41
42003;BME280;27693;50.506;30.832;2022-11-20T03:12:43;100258.77;;;0.28;76.06
42003;BME280;27693;50.506;30.832;2022-11-20T03:13:45;100256.97;;;0.08;76.56
42003;BME280;27693;50.506;30.832;2022-11-20T03:14:47;100267.94;;;-0.11;76.52
42003;BME280;27693;50.506;30.832;2022-11-20T03:15:51;100270.50;;;-0.18;76.83
42003;BME280;27693;50.506;30.832;2022-11-20T03:16:53;100270.50;;;-0.11;76.90
42003;BME280;27693;50.506;30.832;2022-11-20T03:17:55;100262.02;;;-0.03;76.35
42003;BME280;27693;50.506;30.832;2022-11-20T03:18:57;100251.81;;;0.04;75.69
42003;BME280;27693;50.506;30.832;2022-11-20T03:19:59;100262.09;;;0.05;75.73
42003;BME280;27693;50.506;30.832;2022-11-20T03:21:01;100258.72;;;0.15;75.20
42003;BME280;27693;50.506;30.832;2022-11-20T03:22:03;100260.46;;;0.23;75.04
42003;BME280;27693;50.506;30.832;2022-11-20T03:23:04;100265.61;;;0.29;75.21
42003;BME280;27693;50.506;30.832;2022-11-20T03:24:07;100268.22;;;0.41;75.06
42003;BME280;27693;50.506;30.832;2022-11-20T03:25:10;100264.00;;;0.46;75.01
42003;BME280;27693;50.506;30.832;2022-11-20T03:26:20;100262.31;;;0.52;75.16
42003;BME280;27693;50.506;30.832;2022-11-20T03:27:22;100259.77;;;0.56;74.92
42003;BME280;27693;50.506;30.832;2022-11-20T03:28:24;100272.59;;;0.61;73.95
42003;BME280;27693;50.506;30.832;2022-11-20T03:29:26;100276.87;;;0.67;73.61
42003;BME280;27693;50.506;30.832;2022-11-20T03:30:28;100290.54;;;0.69;73.81
42003;BME280;27693;50.506;30.832;2022-11-20T03:31:35;100293.11;;;0.67;73.54
42003;BME280;27693;50.506;30.832;2022-11-20T03:32:38;100299.02;;;0.55;74.11
42003;BME280;27693;50.506;30.832;2022-11-20T03:33:41;100291.31;;;0.49;74.80
42003;BME280;27693;50.506;30.832;2022-11-20T03:34:44;100288.73;;;0.44;74.82
42003;BME280;27693;50.506;30.832;2022-11-20T03:35:46;100294.70;;;0.40;74.87
42003;BME280;27693;50.506;30.832;2022-11-20T03:36:48;100298.09;;;0.42;74.24
42003;BME280;27693;50.506;30.832;2022-11-20T03:37:51;100298.09;;;0.42;74.24
42003;BME280;27693;50.506;30.832;2022-11-20T03:38:54;100293.00;;;0.45;74.16
42003;BME280;27693;50.506;30.832;2022-11-20T03:39:56;100294.72;;;0.46;74.10
42003;BME280;27693;50.506;30.832;2022-11-20T03:41:09;100289.60;;;0.48;73.81
42003;BME280;27693;50.506;30.832;2022-11-20T03:42:05;100293.91;;;0.54;73.59
42003;BME280;27693;50.506;30.832;2022-11-20T03:43:09;100293.05;;;0.58;73.62
42003;BME280;27693;50.506;30.832;2022-11-20T03:44:12;100275.98;;;0.57;73.60
42003;BME280;27693;50.506;30.832;2022-11-20T03:45:19;100275.98;;;0.57;73.60
42003;BME280;27693;50.506;30.832;2022-11-20T03:46:19;100291.39;;;0.66;73.49
42003;BME280;27693;50.506;30.832;2022-11-20T03:47:22;100295.69;;;0.73;73.53
42003;BME280;27693;50.506;30.832;2022-11-20T03:48:24;100297.42;;;0.81;73.32
42003;BME280;27693;50.506;30.832;2022-11-20T03:49:27;100293.16;;;0.86;73.12
42003;BME280;27693;50.506;30.832;2022-11-20T03:50:29;100290.59;;;0.87;73.40
42003;BME280;27693;50.506;30.832;2022-11-20T03:51:33;100284.61;;;0.84;73.24
42003;BME280;27693;50.506;30.832;2022-11-20T03:52:35;100289.73;;;0.84;73.34
42003;BME280;27693;50.506;30.832;2022-11-20T03:53:37;100288.04;;;0.86;72.37
42003;BME280;27693;50.506;30.832;2022-11-20T03:54:39;100285.45;;;0.83;72.77
42003;BME280;27693;50.506;30.832;2022-11-20T03:55:41;100286.32;;;0.85;72.58
42003;BME280;27693;50.506;30.832;2022-11-20T03:56:43;100286.33;;;0.82;72.14
42003;BME280;27693;50.506;30.832;2022-11-20T03:57:45;100276.08;;;0.82;71.57
42003;BME280;27693;50.506;30.832;2022-11-20T03:58:46;100281.20;;;0.82;71.56
42003;BME280;27693;50.506;30.832;2022-11-20T03:59:48;100284.63;;;0.85;71.75
42003;BME280;27693;50.506;30.832;2022-11-20T04:00:50;100278.63;;;0.86;71.83
42003;BME280;27693;50.506;30.832;2022-11-20T04:01:52;100281.20;;;0.85;72.18
42003;BME280;27693;50.506;30.832;2022-11-20T04:02:59;100270.96;;;0.82;72.97
42003;BME280;27693;50.506;30.832;2022-11-20T04:04:01;100276.08;;;0.82;73.22
42003;BME280;27693;50.506;30.832;2022-11-20T04:05:03;100281.20;;;0.85;72.93
42003;BME280;27693;50.506;30.832;2022-11-20T04:06:15;100282.88;;;0.76;73.95
42003;BME280;27693;50.506;30.832;2022-11-20T04:07:13;100274.33;;;0.71;73.78
42003;BME280;27693;50.506;30.832;2022-11-20T04:08:15;100265.77;;;0.69;72.73
42003;BME280;27693;50.506;30.832;2022-11-20T04:09:16;100272.62;;;0.67;72.52
42003;BME280;27693;50.506;30.832;2022-11-20T04:10:18;100262.38;;;0.67;72.61
42003;BME280;27693;50.506;30.832;2022-11-20T04:11:27;100266.64;;;0.71;72.81
42003;BME280;27693;50.506;30.832;2022-11-20T04:12:25;100272.66;;;0.79;72.85
42003;BME280;27693;50.506;30.832;2022-11-20T04:13:27;100282.90;;;0.79;72.83
42003;BME280;27693;50.506;30.832;2022-11-20T04:14:29;100284.59;;;0.77;72.27
42003;BME280;27693;50.506;30.832;2022-11-20T04:15:32;100277.73;;;0.70;72.10
42003;BME280;27693;50.506;30.832;2022-11-20T04:16:36;100278.56;;;0.63;72.41
42003;BME280;27693;50.506;30.832;2022-11-20T04:17:38;100267.47;;;0.64;72.65
42003;BME280;27693;50.506;30.832;2022-11-20T04:18:39;100272.62;;;0.67;72.63
42003;BME280;27693;50.506;30.832;2022-11-20T04:19:42;100279.45;;;0.68;72.75
42003;BME280;27693;50.506;30.832;2022-11-20T04:20:44;100270.08;;;0.72;73.08
42003;BME280;27693;50.506;30.832;2022-11-20T04:21:45;100270.09;;;0.78;72.69
42003;BME280;27693;50.506;30.832;2022-11-20T04:22:48;100279.48;;;0.84;72.52
42003;BME280;27693;50.506;30.832;2022-11-20T04:23:50;100267.55;;;0.86;72.88
42003;BME280;27693;50.506;30.832;2022-11-20T04:24:53;100277.81;;;0.89;72.98
42003;BME280;27693;50.506;30.832;2022-11-20T04:26:00;100276.11;;;0.94;72.66
42003;BME280;27693;50.506;30.832;2022-11-20T04:26:59;100280.39;;;0.97;72.34
42003;BME280;27693;50.506;30.832;2022-11-20T04:28:00;100276.95;;;0.94;72.62
42003;BME280;27693;50.506;30.832;2022-11-20T04:29:03;100279.55;;;0.96;72.27
42003;BME280;27693;50.506;30.832;2022-11-20T04:30:07;100271.84;;;0.99;72.27
42003;BME280;27693;50.506;30.832;2022-11-20T04:31:11;100278.67;;;1.03;71.78
42003;BME280;27693;50.506;30.832;2022-11-20T04:32:14;100267.59;;;1.01;72.69
42003;BME280;27693;50.506;30.832;2022-11-20T04:33:15;100278.69;;;1.00;73.20
42003;BME280;27693;50.506;30.832;2022-11-20T04:34:17;100277.81;;;0.98;72.87
42003;BME280;27693;50.506;30.832;2022-11-20T04:35:19;100276.12;;;1.00;72.63
42003;BME280;27693;50.506;30.832;2022-11-20T04:36:23;100276.11;;;1.03;72.48
42003;BME280;27693;50.506;30.832;2022-11-20T04:37:26;100274.43;;;1.02;73.42
42003;BME280;27693;50.506;30.832;2022-11-20T04:38:27;100275.28;;;1.01;72.68
42003;BME280;27693;50.506;30.832;2022-11-20T04:39:29;100274.42;;;1.05;72.32
42003;BME280;27693;50.506;30.832;2022-11-20T04:40:31;100274.44;;;1.08;72.24
42003;BME280;27693;50.506;30.832;2022-11-20T04:41:35;100270.15;;;1.10;71.89
42003;BME280;27693;50.506;30.832;2022-11-20T04:42:37;100272.73;;;1.14;71.66
42003;BME280;27693;50.506;30.832;2022-11-20T04:43:39;100267.61;;;1.14;71.90
42003;BME280;27693;50.506;30.832;2022-11-20T04:44:41;100266.77;;;1.13;72.09
42003;BME280;27693;50.506;30.832;2022-11-20T04:45:42;100265.91;;;1.09;71.74
42003;BME280;27693;50.506;30.832;2022-11-20T04:46:44;100259.06;;;1.08;71.65
42003;BME280;27693;50.506;30.832;2022-11-20T04:47:46;100259.90;;;1.10;71.29
42003;BME280;27693;50.506;30.832;2022-11-20T04:48:47;100253.94;;;1.08;71.82
42003;BME280;27693;50.506;30.832;2022-11-20T04:49:49;100252.23;;;1.07;72.09
42003;BME280;27693;50.506;30.832;2022-11-20T04:50:52;100247.09;;;1.07;72.63
42003;BME280;27693;50.506;30.832;2022-11-20T04:51:54;100249.66;;;1.07;71.98
42003;BME280;27693;50.506;30.832;2022-11-20T04:52:56;100241.09;;;1.07;72.26
42003;BME280;27693;50.506;30.832;2022-11-20T04:53:58;100242.83;;;1.05;73.20
42003;BME280;27693;50.506;30.832;2022-11-20T04:55:00;100229.14;;;0.98;73.09
42003;BME280;27693;50.506;30.832;2022-11-20T04:56:04;100229.14;;;0.98;73.09
42003;BME280;27693;50.506;30.832;2022-11-20T04:57:07;100240.23;;;1.03;72.51
42003;BME280;27693;50.506;30.832;2022-11-20T04:58:11;100241.09;;;1.07;72.16
42003;BME280;27693;50.506;30.832;2022-11-20T04:59:13;100243.67;;;1.05;72.09
42003;BME280;27693;50.506;30.832;2022-11-20T05:00:16;100240.26;;;1.06;71.71
42003;BME280;27693;50.506;30.832;2022-11-20T05:01:22;100236.00;;;1.08;71.92
42003;BME280;27693;50.506;30.832;2022-11-20T05:02:25;100230.02;;;1.13;71.52
42003;BME280;27693;50.506;30.832;2022-11-20T05:03:27;100228.30;;;1.11;71.66
42003;BME280;27693;50.506;30.832;2022-11-20T05:04:29;100233.42;;;1.11;71.22
42003;BME280;27693;50.506;30.832;2022-11-20T05:05:31;100230.86;;;1.11;71.05
42003;BME280;27693;50.506;30.832;2022-11-20T05:06:33;100230.02;;;1.13;71.15
42003;BME280;27693;50.506;30.832;2022-11-20T05:07:35;100231.73;;;1.14;71.28
42003;BME280;27693;50.506;30.832;2022-11-20T05:08:37;100226.60;;;1.14;71.28
42003;BME280;27693;50.506;30.832;2022-11-20T05:09:39;100224.04;;;1.14;71.34
42003;BME280;27693;50.506;30.832;2022-11-20T05:10:41;100224.04;;;1.14;72.27
42003;BME280;27693;50.506;30.832;2022-11-20T05:11:43;100216.35;;;1.14;72.26
42003;BME280;27693;50.506;30.832;2022-11-20T05:12:47;100217.22;;;1.16;71.94
42003;BME280;27693;50.506;30.832;2022-11-20T05:13:50;100218.05;;;1.18;71.35
42003;BME280;27693;50.506;30.832;2022-11-20T05:14:53;100219.77;;;1.19;71.10
42003;BME280;27693;50.506;30.832;2022-11-20T05:15:55;100212.92;;;1.18;71.12
42003;BME280;27693;50.506;30.832;2022-11-20T05:16:57;100218.06;;;1.15;71.92
42003;BME280;27693;50.506;30.832;2022-11-20T05:17:58;100218.06;;;1.15;71.92
42003;BME280;27693;50.506;30.832;2022-11-20T05:19:00;100206.09;;;1.15;71.22
42003;BME280;27693;50.506;30.832;2022-11-20T05:20:02;100212.94;;;1.15;71.34
42003;BME280;27693;50.506;30.832;2022-11-20T05:21:05;100213.77;;;1.10;72.90
42003;BME280;27693;50.506;30.832;2022-11-20T05:22:08;100205.26;;;1.13;71.76
42003;BME280;27693;50.506;30.832;2022-11-20T05:23:10;100205.23;;;1.11;71.89
42003;BME280;27693;50.506;30.832;2022-11-20T05:24:12;100214.64;;;1.13;72.06
42003;BME280;27693;50.506;30.832;2022-11-20T05:25:14;100212.92;;;1.11;72.37
42003;BME280;27693;50.506;30.832;2022-11-20T05:26:20;100221.47;;;1.07;72.90
42003;BME280;27693;50.506;30.832;2022-11-20T05:27:22;100228.30;;;0.96;72.62
42003;BME280;27693;50.506;30.832;2022-11-20T05:28:24;100223.16;;;0.93;73.27
42003;BME280;27693;50.506;30.832;2022-11-20T05:29:27;100224.00;;;0.92;72.46
42003;BME280;27693;50.506;30.832;2022-11-20T05:30:29;100223.14;;;0.90;72.33
42003;BME280;27693;50.506;30.832;2022-11-20T05:31:30;100220.59;;;0.87;72.81
42003;BME280;27693;50.506;30.832;2022-11-20T05:32:33;100217.17;;;0.82;74.44
42003;BME280;27693;50.506;30.832;2022-11-20T05:33:36;100217.17;;;0.82;74.44